Time;durP1;ratioP1;P1;durP2;ratioP2;P2;SDS_P1;SDS_P2;PMS_P1;PMS_P2;Temp;Humidity;BMP_temperature;BMP_pressure;BME280_temperature;BME280_humidity;BME280_pressure;Samples;Min_cycle;Max_cycle;Signal;HPM_P1;HPM_P2
2022/05/25 00:01:24;;;;;;;0.45;0.10;;;15.00;99.90;;;;;;4827991;29;20026;-88
2022/05/25 00:03:50;;;;;;;0.57;0.20;;;14.90;99.90;;;;;;4826520;29;20045;-88
2022/05/25 00:06:18;;;;;;;0.82;0.20;;;14.90;99.90;;;;;;4826137;29;20039;-88
2022/05/25 00:08:44;;;;;;;0.88;0.50;;;14.70;99.90;;;;;;4823431;29;20470;-87
2022/05/25 00:11:13;;;;;;;0.50;0.10;;;14.90;99.90;;;;;;4832313;29;20101;-87
2022/05/25 00:13:39;;;;;;;0.38;0.10;;;14.90;99.90;;;;;;4835730;29;20041;-87
2022/05/25 00:16:07;;;;;;;0.93;0.10;;;14.80;99.90;;;;;;4828098;29;20452;-88
2022/05/25 00:19:58;;;;;;;1.27;0.20;;;14.80;99.90;;;;;;4833300;29;20503;-88
2022/05/25 00:21:23;;;;;;;1.15;0.10;;;14.90;99.90;;;;;;4825135;29;20042;-87
2022/05/25 00:23:49;;;;;;;0.60;0.10;;;14.80;99.90;;;;;;4828998;29;20022;-88
2022/05/25 00:26:17;;;;;;;0.65;0.25;;;14.80;99.90;;;;;;4828956;29;20499;-87
2022/05/25 00:28:43;;;;;;;0.40;0.20;;;14.80;99.90;;;;;;4832508;29;20108;-88
2022/05/25 00:31:08;;;;;;;0.40;0.13;;;14.80;99.90;;;;;;4820111;29;20555;-87
2022/05/25 00:33:34;;;;;;;0.10;0.10;;;14.80;99.90;;;;;;4829935;29;20092;-87
2022/05/25 00:36:03;;;;;;;0.90;0.03;;;14.80;99.90;;;;;;4816512;29;20138;-89
2022/05/25 00:38:34;;;;;;;1.83;0.30;;;14.80;99.90;;;;;;4831148;29;20026;-88
2022/05/25 00:41:05;;;;;;;0.10;0.00;;;14.80;99.90;;;;;;4833217;29;20473;-89
2022/05/25 00:43:31;;;;;;;0.75;0.20;;;14.80;99.90;;;;;;4814622;29;20027;-88
2022/05/25 00:46:04;;;;;;;0.30;0.10;;;14.80;99.90;;;;;;4826489;29;20186;-89
2022/05/25 00:48:48;;;;;;;2.45;0.22;;;14.80;99.90;;;;;;4831423;29;20053;-88
2022/05/25 00:51:24;;;;;;;0.10;0.10;;;14.80;99.90;;;;;;4831143;29;20049;-88
2022/05/25 00:54:00;;;;;;;1.42;0.20;;;14.80;99.90;;;;;;4822672;29;20087;-89
2022/05/25 00:56:27;;;;;;;0.13;0.03;;;14.70;99.90;;;;;;4831208;29;20105;-88
2022/05/25 00:59:00;;;;;;;1.65;0.10;;;14.80;99.90;;;;;;4826224;29;20052;-88
2022/05/25 01:01:27;;;;;;;0.10;0.10;;;14.80;99.90;;;;;;4836260;29;20082;-89
2022/05/25 01:03:53;;;;;;;0.50;0.17;;;14.80;99.90;;;;;;4829601;29;20045;-88
2022/05/25 01:06:44;;;;;;;0.17;0.00;;;14.70;99.90;;;;;;4822380;29;20034;-88
2022/05/25 01:09:51;;;;;;;0.40;0.10;;;14.70;99.90;;;;;;4831504;29;20554;-88
2022/05/25 01:12:38;;;;;;;3.88;0.13;;;14.70;99.90;;;;;;4849114;29;20313;-88
2022/05/25 01:15:33;;;;;;;0.40;0.10;;;14.70;99.90;;;;;;4828361;29;20052;-88
2022/05/25 01:18:18;;;;;;;0.52;0.10;;;14.60;99.90;;;;;;4823327;29;20043;-87
2022/05/25 01:20:46;;;;;;;0.65;0.22;;;14.70;99.90;;;;;;4817081;29;20095;-87
2022/05/25 01:23:49;;;;;;;0.30;0.10;;;14.60;99.90;;;;;;4819240;29;20049;-87
2022/05/25 01:26:55;;;;;;;0.35;0.10;;;14.70;99.90;;;;;;4828553;29;20445;-88
2022/05/25 01:29:52;;;;;;;0.95;0.30;;;14.60;99.90;;;;;;4819764;29;20125;-87
2022/05/25 01:32:36;;;;;;;1.17;0.30;;;14.70;99.90;;;;;;4821119;29;20299;-88
2022/05/25 01:35:14;;;;;;;0.17;0.10;;;14.70;99.90;;;;;;4814871;29;20523;-87
2022/05/25 01:37:56;;;;;;;0.20;0.10;;;14.70;99.90;;;;;;4829375;29;20034;-87
2022/05/25 01:40:36;;;;;;;0.20;0.20;;;14.70;99.90;;;;;;4827890;29;20407;-88
2022/05/25 01:43:21;;;;;;;1.63;0.10;;;14.70;99.90;;;;;;4841725;23;20593;-89
2022/05/25 01:45:55;;;;;;;0.10;0.03;;;14.70;99.90;;;;;;4820051;29;20019;-89
2022/05/25 01:48:23;;;;;;;0.43;0.10;;;14.70;99.90;;;;;;4827364;29;20038;-87
2022/05/25 01:51:14;;;;;;;0.40;0.10;;;14.60;99.90;;;;;;4821430;29;20042;-89
2022/05/25 01:53:43;;;;;;;0.10;0.10;;;14.80;99.90;;;;;;4818339;29;20038;-90
2022/05/25 01:56:13;;;;;;;0.50;0.20;;;14.70;99.90;;;;;;4823123;29;20441;-89
2022/05/25 01:58:46;;;;;;;1.23;0.10;;;14.60;99.90;;;;;;4821794;29;20097;-89
2022/05/25 02:01:13;;;;;;;0.10;0.08;;;14.60;99.90;;;;;;4832295;29;20102;-88
2022/05/25 02:06:50;;;;;;;0.40;0.10;;;14.50;99.90;;;;;;4819548;29;20075;-88
2022/05/25 02:09:30;;;;;;;0.55;0.20;;;14.40;99.90;;;;;;4832790;29;20034;-89
2022/05/25 02:12:17;;;;;;;0.52;0.10;;;14.40;99.90;;;;;;4820690;29;20065;-89
2022/05/25 02:15:10;;;;;;;1.17;0.40;;;14.50;99.90;;;;;;4814034;29;20085;-88
2022/05/25 02:17:59;;;;;;;0.57;0.15;;;14.30;99.90;;;;;;4832112;29;20034;-89
2022/05/25 02:20:40;;;;;;;0.55;0.10;;;14.30;99.90;;;;;;4816236;29;20026;-89
2022/05/25 02:23:20;;;;;;;0.60;0.10;;;14.30;99.90;;;;;;4821909;29;20031;-89
2022/05/25 02:25:48;;;;;;;1.02;0.17;;;14.30;99.90;;;;;;4816666;29;20655;-90
2022/05/25 02:28:27;;;;;;;0.88;0.10;;;14.30;99.90;;;;;;4812988;29;20038;-88
2022/05/25 02:30:57;;;;;;;0.17;0.10;;;14.30;99.90;;;;;;4812560;29;20042;-89
2022/05/25 02:33:31;;;;;;;0.20;0.10;;;14.30;99.90;;;;;;4815900;29;20503;-89
2022/05/25 02:35:58;;;;;;;6.75;0.20;;;14.20;99.90;;;;;;4810584;29;20046;-88
2022/05/25 02:38:24;;;;;;;0.63;0.10;;;14.20;99.90;;;;;;4820855;29;20503;-89
2022/05/25 02:40:50;;;;;;;0.35;0.10;;;14.10;99.90;;;;;;4812059;29;20029;-89
2022/05/25 02:43:16;;;;;;;0.52;0.05;;;14.10;99.90;;;;;;4813869;29;20616;-89
2022/05/25 02:45:42;;;;;;;1.77;0.30;;;14.10;99.90;;;;;;4815109;29;20039;-90
2022/05/25 02:48:08;;;;;;;0.20;0.00;;;14.10;99.90;;;;;;4821411;29;20508;-88
2022/05/25 02:50:35;;;;;;;0.08;0.00;;;14.10;99.90;;;;;;4820215;29;20447;-88
2022/05/25 02:53:01;;;;;;;0.00;0.00;;;14.00;99.90;;;;;;4821410;29;20040;-88
2022/05/25 02:55:28;;;;;;;0.35;0.10;;;13.90;99.90;;;;;;4819529;29;20392;-88
2022/05/25 02:57:57;;;;;;;0.43;0.13;;;14.00;99.90;;;;;;4821163;29;20086;-88
2022/05/25 03:00:22;;;;;;;0.00;0.00;;;13.90;99.90;;;;;;4810407;29;20050;-89
2022/05/25 03:02:48;;;;;;;0.52;0.10;;;13.90;99.90;;;;;;4820991;29;20337;-89
2022/05/25 03:05:13;;;;;;;0.00;0.00;;;14.10;99.90;;;;;;4816512;29;20101;-89
2022/05/25 03:07:39;;;;;;;0.00;0.00;;;14.00;99.90;;;;;;4813964;29;20393;-88
2022/05/25 03:10:05;;;;;;;0.35;0.10;;;13.90;99.90;;;;;;4820167;29;20058;-88
2022/05/25 03:12:31;;;;;;;0.10;0.00;;;13.90;99.90;;;;;;4819190;29;20441;-90
2022/05/25 03:14:57;;;;;;;0.10;0.00;;;14.00;99.90;;;;;;4814137;29;20044;-89
2022/05/25 03:17:23;;;;;;;0.75;0.10;;;13.80;99.90;;;;;;4814961;29;20031;-89
2022/05/25 03:19:56;;;;;;;0.20;0.10;;;13.90;99.90;;;;;;4818787;29;20461;-88
2022/05/25 03:22:23;;;;;;;0.70;0.08;;;13.80;99.90;;;;;;4815936;29;20506;-88
2022/05/25 03:24:49;;;;;;;0.30;0.03;;;13.80;99.90;;;;;;4820306;29;20030;-88
2022/05/25 03:27:15;;;;;;;0.65;0.10;;;13.80;99.90;;;;;;4819935;29;20033;-88
2022/05/25 03:29:42;;;;;;;1.85;0.10;;;13.80;99.90;;;;;;4819456;29;20072;-88
2022/05/25 03:32:09;;;;;;;0.52;0.10;;;13.70;99.90;;;;;;4816827;29;20042;-88
2022/05/25 03:34:35;;;;;;;0.35;0.10;;;13.80;99.90;;;;;;4820510;29;20090;-88
2022/05/25 03:37:01;;;;;;;0.35;0.10;;;13.60;99.90;;;;;;4818620;29;20839;-88
2022/05/25 03:39:28;;;;;;;0.30;0.10;;;13.60;99.90;;;;;;4820982;29;20035;-89
2022/05/25 03:42:01;;;;;;;0.10;0.00;;;13.70;99.90;;;;;;4821764;29;20035;-89
2022/05/25 03:44:27;;;;;;;0.50;0.08;;;13.70;99.90;;;;;;4826174;29;20038;-89
2022/05/25 03:46:53;;;;;;;0.20;0.10;;;13.60;99.90;;;;;;4830025;29;20057;-88
2022/05/25 03:49:19;;;;;;;0.17;0.10;;;13.70;99.90;;;;;;4822859;29;20031;-89
2022/05/25 03:51:46;;;;;;;0.70;0.10;;;13.60;99.90;;;;;;4824563;29;20053;-89
2022/05/25 03:54:12;;;;;;;0.60;0.10;;;13.70;99.90;;;;;;4818683;29;20027;-89
2022/05/25 03:56:38;;;;;;;0.55;0.10;;;13.60;99.90;;;;;;4823041;29;20500;-89
2022/05/25 03:59:04;;;;;;;0.38;0.10;;;13.60;99.90;;;;;;4816519;29;20110;-88
2022/05/25 04:01:36;;;;;;;1.15;0.30;;;13.70;99.90;;;;;;4822651;29;20080;-88
2022/05/25 04:04:03;;;;;;;0.10;0.08;;;13.70;99.90;;;;;;4833095;29;20090;-89
2022/05/25 04:06:29;;;;;;;0.57;0.10;;;13.70;99.90;;;;;;4834121;29;20034;-88
2022/05/25 04:08:54;;;;;;;0.15;0.10;;;13.70;99.90;;;;;;4823119;29;20521;-89
2022/05/25 04:11:20;;;;;;;0.65;0.20;;;13.70;99.90;;;;;;4821493;29;20564;-89
2022/05/25 04:13:46;;;;;;;0.00;0.00;;;13.80;99.90;;;;;;4816234;29;20082;-89
2022/05/25 04:16:12;;;;;;;0.90;0.10;;;13.70;99.90;;;;;;4816366;29;20038;-89
2022/05/25 04:18:38;;;;;;;0.40;0.10;;;13.80;99.90;;;;;;4822035;29;20037;-89
2022/05/25 04:21:04;;;;;;;0.40;0.10;;;13.80;99.90;;;;;;4815201;29;20031;-89
2022/05/25 04:23:30;;;;;;;2.92;0.20;;;13.70;99.90;;;;;;4820828;29;20041;-89
2022/05/25 04:25:59;;;;;;;1.35;0.13;;;13.70;99.90;;;;;;4818216;29;20400;-89
2022/05/25 04:28:25;;;;;;;3.00;0.15;;;13.70;99.90;;;;;;4821061;29;20030;-89
2022/05/25 04:30:50;;;;;;;0.22;0.10;;;13.70;99.90;;;;;;4823025;29;20496;-90
2022/05/25 04:33:16;;;;;;;0.45;0.10;;;13.80;99.90;;;;;;4819270;29;20045;-89
2022/05/25 04:35:44;;;;;;;0.95;0.10;;;13.70;99.90;;;;;;4823190;29;20045;-90
2022/05/25 04:38:13;;;;;;;0.00;0.00;;;13.80;99.90;;;;;;4821613;29;20038;-88
2022/05/25 04:40:43;;;;;;;0.95;0.20;;;13.80;99.90;;;;;;4825261;29;20059;-90
2022/05/25 04:43:20;;;;;;;1.05;0.10;;;13.80;99.90;;;;;;4814753;29;20125;-89
2022/05/25 04:45:47;;;;;;;0.55;0.10;;;13.80;99.90;;;;;;4819672;29;20432;-89
2022/05/25 04:48:16;;;;;;;1.20;0.20;;;13.80;99.90;;;;;;4818888;29;20030;-89
2022/05/25 04:50:45;;;;;;;1.73;0.10;;;14.00;99.90;;;;;;4823189;29;20046;-89
2022/05/25 04:53:13;;;;;;;0.55;0.17;;;13.90;99.90;;;;;;4820577;29;20072;-88
2022/05/25 04:58:26;;;;;;;0.35;0.10;;;14.00;99.90;;;;;;4820574;29;20103;-89
2022/05/25 05:00:52;;;;;;;0.43;0.10;;;14.00;99.90;;;;;;4820193;29;20114;-89
2022/05/25 05:03:19;;;;;;;0.35;0.10;;;14.10;99.90;;;;;;4821789;29;20550;-89
2022/05/25 05:05:46;;;;;;;0.10;0.10;;;14.10;99.90;;;;;;4831276;29;20061;-89
2022/05/25 05:08:12;;;;;;;0.40;0.10;;;14.10;99.90;;;;;;4819442;29;20058;-89
2022/05/25 05:10:38;;;;;;;0.40;0.10;;;14.10;99.90;;;;;;4818589;29;20061;-88
2022/05/25 05:13:04;;;;;;;0.50;0.10;;;14.10;99.90;;;;;;4821582;29;20027;-89
2022/05/25 05:15:35;;;;;;;0.13;0.10;;;14.20;99.90;;;;;;4823862;29;20489;-88
2022/05/25 05:18:01;;;;;;;0.32;0.10;;;14.10;99.90;;;;;;4824173;29;20034;-88
2022/05/25 05:20:28;;;;;;;0.30;0.10;;;14.10;99.90;;;;;;4818627;29;20034;-88
2022/05/25 05:22:55;;;;;;;0.17;0.10;;;14.10;99.90;;;;;;4807600;29;20046;-88
2022/05/25 05:25:21;;;;;;;1.95;0.00;;;14.00;99.90;;;;;;4815135;29;20037;-88
2022/05/25 05:27:47;;;;;;;0.50;0.20;;;14.00;99.90;;;;;;4814547;29;20570;-90
2022/05/25 05:30:18;;;;;;;0.60;0.20;;;14.00;99.90;;;;;;4822213;29;20046;-90
2022/05/25 05:32:44;;;;;;;1.15;0.10;;;14.10;99.90;;;;;;4823448;29;20026;-89
2022/05/25 05:35:10;;;;;;;0.52;0.10;;;14.20;99.90;;;;;;4815598;29;20512;-89
2022/05/25 05:37:50;;;;;;;2.20;0.20;;;14.30;99.90;;;;;;4810041;29;20037;-89
2022/05/25 05:40:19;;;;;;;1.63;0.30;;;14.20;99.90;;;;;;4819633;29;20027;-89
2022/05/25 05:42:47;;;;;;;0.50;0.10;;;14.30;99.90;;;;;;4822709;29;20034;-89
2022/05/25 05:45:17;;;;;;;0.60;0.17;;;14.50;99.90;;;;;;4818020;29;20090;-89
2022/05/25 05:48:01;;;;;;;1.50;0.13;;;14.40;99.90;;;;;;4819328;29;20128;-90
2022/05/25 05:50:29;;;;;;;0.45;0.10;;;14.30;99.90;;;;;;4834212;29;20034;-90
2022/05/25 05:52:57;;;;;;;0.60;0.20;;;14.30;99.90;;;;;;4821830;29;20085;-90
2022/05/25 05:55:23;;;;;;;0.98;0.10;;;14.30;99.90;;;;;;4818188;29;20038;-89
2022/05/25 05:57:50;;;;;;;0.40;0.20;;;14.10;99.90;;;;;;4822030;29;20110;-90
2022/05/25 06:00:16;;;;;;;0.00;0.00;;;14.10;99.90;;;;;;4818688;29;20027;-90
2022/05/25 06:02:43;;;;;;;0.25;0.10;;;14.10;99.90;;;;;;4818985;29;20039;-90
2022/05/25 06:05:10;;;;;;;0.73;0.15;;;14.40;99.90;;;;;;4822479;29;20037;-90
2022/05/25 06:07:36;;;;;;;1.08;0.20;;;14.40;99.90;;;;;;4818696;29;20050;-90
2022/05/25 06:13:24;;;;;;;0.05;0.00;;;14.90;99.90;;;;;;4812720;29;20068;-89
2022/05/25 06:21:22;;;;;;;0.88;0.30;;;15.40;99.90;;;;;;4816273;29;20103;-89
2022/05/25 06:27:13;;;;;;;0.10;0.00;;;15.80;99.90;;;;;;4811636;29;20089;-89
2022/05/25 06:29:48;;;;;;;1.00;0.10;;;15.80;99.90;;;;;;4815680;29;20045;-91
2022/05/25 06:35:36;;;;;;;0.10;0.03;;;15.90;99.90;;;;;;4794231;29;20099;-89
2022/05/25 06:38:03;;;;;;;0.60;0.20;;;15.90;99.90;;;;;;4816195;29;20547;-91
2022/05/25 06:40:29;;;;;;;0.20;0.10;;;15.90;99.90;;;;;;4822727;29;20117;-89
2022/05/25 06:42:54;;;;;;;0.32;0.13;;;15.60;99.90;;;;;;4813935;29;20082;-89
2022/05/25 06:45:20;;;;;;;0.52;0.10;;;15.90;99.90;;;;;;4819493;29;20030;-90
2022/05/25 06:47:46;;;;;;;0.43;0.10;;;16.00;99.90;;;;;;4812581;29;20461;-90
2022/05/25 06:50:12;;;;;;;0.50;0.10;;;16.10;99.90;;;;;;4822128;29;20034;-90
2022/05/25 06:52:37;;;;;;;0.28;0.10;;;16.10;99.90;;;;;;4824065;29;20457;-90
2022/05/25 06:55:04;;;;;;;0.50;0.10;;;16.30;99.90;;;;;;4806836;29;20070;-91
2022/05/25 06:57:30;;;;;;;0.10;0.10;;;16.30;99.90;;;;;;4801533;29;20045;-91
2022/05/25 06:59:56;;;;;;;0.50;0.20;;;16.40;99.90;;;;;;4814429;29;20053;-91
2022/05/25 07:02:23;;;;;;;0.30;0.15;;;16.50;99.90;;;;;;4818540;29;20054;-91
2022/05/25 07:04:48;;;;;;;0.85;0.10;;;16.60;99.90;;;;;;4807270;29;20015;-91
2022/05/25 07:07:14;;;;;;;1.75;0.30;;;16.50;99.90;;;;;;4809165;29;20054;-90
2022/05/25 07:09:40;;;;;;;0.05;0.05;;;16.40;99.90;;;;;;4818689;29;20114;-91
2022/05/25 07:12:07;;;;;;;0.28;0.08;;;16.10;99.90;;;;;;4821955;29;20054;-90
2022/05/25 07:14:34;;;;;;;0.30;0.10;;;16.00;99.90;;;;;;4823031;29;20039;-90
2022/05/25 07:17:00;;;;;;;1.10;0.22;;;16.30;99.90;;;;;;4822197;29;20129;-91
2022/05/25 07:19:26;;;;;;;0.40;0.10;;;16.60;99.90;;;;;;4824511;29;20118;-90
2022/05/25 07:21:52;;;;;;;0.20;0.10;;;16.70;99.90;;;;;;4814159;29;20053;-90
2022/05/25 07:24:18;;;;;;;0.47;0.20;;;16.90;99.90;;;;;;4804112;29;20038;-90
2022/05/25 07:26:44;;;;;;;0.70;0.22;;;16.90;99.90;;;;;;4806374;29;20166;-90
2022/05/25 07:29:10;;;;;;;0.47;0.20;;;17.10;99.90;;;;;;4808046;29;20034;-89
2022/05/25 07:31:42;;;;;;;0.30;0.10;;;17.20;99.90;;;;;;4809549;29;20156;-89
2022/05/25 07:34:22;;;;;;;0.65;0.20;;;17.40;99.90;;;;;;4816318;29;20058;-90
2022/05/25 07:36:54;;;;;;;1.20;0.30;;;17.60;99.70;;;;;;4824902;29;20037;-90
2022/05/25 07:39:26;;;;;;;0.08;0.08;;;17.90;99.20;;;;;;4818442;29;20033;-89
2022/05/25 07:41:56;;;;;;;1.42;0.10;;;18.00;98.10;;;;;;4820313;29;20088;-90
2022/05/25 07:44:30;;;;;;;0.50;0.20;;;18.00;98.30;;;;;;4837538;24;20542;-86
2022/05/25 07:46:56;;;;;;;0.60;0.20;;;17.80;97.50;;;;;;4826950;29;20220;-86
2022/05/25 07:49:23;;;;;;;0.20;0.20;;;17.90;97.70;;;;;;4839231;29;20120;-87
2022/05/25 07:51:50;;;;;;;1.95;0.17;;;18.10;97.70;;;;;;4847005;29;20336;-86
2022/05/25 07:54:16;;;;;;;0.82;0.20;;;18.10;97.70;;;;;;4835009;29;20495;-85
2022/05/25 07:56:42;;;;;;;0.20;0.10;;;18.10;97.70;;;;;;4822727;29;20062;-87
2022/05/25 07:59:09;;;;;;;0.68;0.10;;;18.30;96.90;;;;;;4839605;29;20105;-87
2022/05/25 08:07:19;;;;;;;0.80;0.15;;;18.50;97.40;;;;;;4825224;29;20097;-86
2022/05/25 08:09:45;;;;;;;0.35;0.10;;;18.60;97.10;;;;;;4839767;29;20026;-85
2022/05/25 08:12:12;;;;;;;0.30;0.10;;;18.60;96.70;;;;;;4839295;29;20097;-86
2022/05/25 08:14:38;;;;;;;1.13;0.30;;;18.70;96.80;;;;;;4839175;29;20384;-87
2022/05/25 08:17:06;;;;;;;0.60;0.20;;;19.10;97.20;;;;;;4834979;29;20037;-86
2022/05/25 08:19:32;;;;;;;0.82;0.17;;;19.30;96.30;;;;;;4820432;29;20037;-87
2022/05/25 08:21:58;;;;;;;0.75;0.20;;;19.50;96.90;;;;;;4823723;29;20026;-87
2022/05/25 08:24:23;;;;;;;0.93;0.20;;;19.80;94.90;;;;;;4832045;29;20052;-86
2022/05/25 08:26:49;;;;;;;0.63;0.20;;;19.20;95.20;;;;;;4850723;29;20033;-87
2022/05/25 08:29:15;;;;;;;1.13;0.10;;;18.80;95.70;;;;;;4843274;29;20561;-87
2022/05/25 08:31:40;;;;;;;0.82;0.20;;;18.70;96.70;;;;;;4842043;29;20029;-86
2022/05/25 08:34:07;;;;;;;1.70;0.20;;;18.30;95.20;;;;;;4839723;29;20026;-86
2022/05/25 08:36:33;;;;;;;1.98;0.20;;;18.10;96.20;;;;;;4840030;29;20082;-86
2022/05/25 08:38:59;;;;;;;0.35;0.10;;;17.90;95.90;;;;;;4843587;29;20026;-86
2022/05/25 08:41:30;;;;;;;0.47;0.15;;;17.90;96.10;;;;;;4842786;29;20055;-86
2022/05/25 08:43:57;;;;;;;0.55;0.10;;;17.90;95.60;;;;;;4842927;29;20034;-85
2022/05/25 08:46:25;;;;;;;0.28;0.10;;;18.30;95.60;;;;;;4842777;29;20491;-87
2022/05/25 08:48:51;;;;;;;0.30;0.10;;;18.60;95.60;;;;;;4841365;29;20113;-86
2022/05/25 08:51:20;;;;;;;0.35;0.15;;;19.20;95.10;;;;;;4838008;29;20030;-87
2022/05/25 08:53:46;;;;;;;1.65;0.10;;;19.20;95.00;;;;;;4842458;29;20556;-87
2022/05/25 08:57:04;;;;;;;0.38;0.17;;;19.40;94.20;;;;;;4842781;29;20034;-86
2022/05/25 08:59:36;;;;;;;0.17;0.13;;;19.60;94.00;;;;;;4840626;29;20620;-86
2022/05/25 09:02:20;;;;;;;0.47;0.10;;;19.90;93.10;;;;;;4836697;29;20061;-86
2022/05/25 09:04:55;;;;;;;0.73;0.10;;;19.80;93.10;;;;;;4822326;29;20460;-87
2022/05/25 09:07:43;;;;;;;0.10;0.03;;;19.70;93.80;;;;;;4824817;29;20045;-87
2022/05/25 09:10:11;;;;;;;0.45;0.10;;;19.90;93.20;;;;;;4840383;29;20057;-86
2022/05/25 09:13:08;;;;;;;0.28;0.10;;;20.20;93.00;;;;;;4829491;29;20045;-86
2022/05/25 09:16:15;;;;;;;0.13;0.10;;;20.10;91.50;;;;;;4833178;29;20040;-87
2022/05/25 09:18:33;;;;;;;0.10;0.10;;;20.30;92.90;;;;;;4838731;29;20034;-87
2022/05/25 09:21:00;;;;;;;0.30;0.10;;;19.80;92.70;;;;;;4840679;29;20121;-87
2022/05/25 09:23:28;;;;;;;0.57;0.25;;;20.10;92.40;;;;;;4840216;29;20026;-86
2022/05/25 09:25:54;;;;;;;0.40;0.20;;;19.90;91.90;;;;;;4836535;29;20054;-86
2022/05/25 09:28:30;;;;;;;0.30;0.10;;;19.90;91.40;;;;;;4840599;29;20053;-86
2022/05/25 09:30:58;;;;;;;0.80;0.10;;;19.70;92.90;;;;;;4840592;29;20114;-86
2022/05/25 09:33:31;;;;;;;0.38;0.08;;;19.70;92.60;;;;;;4840120;29;20044;-87
2022/05/25 09:36:04;;;;;;;0.30;0.10;;;19.50;93.10;;;;;;4822284;29;20035;-86
2022/05/25 09:38:57;;;;;;;0.30;0.10;;;19.20;93.60;;;;;;4839034;29;20084;-86
2022/05/25 09:41:27;;;;;;;0.65;0.20;;;19.00;93.60;;;;;;4837281;29;20074;-86
2022/05/25 09:43:56;;;;;;;1.95;0.25;;;18.80;93.70;;;;;;4841470;29;20396;-88
2022/05/25 09:46:30;;;;;;;0.73;0.20;;;18.60;94.10;;;;;;4841440;29;20425;-86
2022/05/25 09:48:59;;;;;;;0.50;0.10;;;18.50;94.00;;;;;;4844331;29;20400;-86
2022/05/25 09:51:44;;;;;;;0.70;0.20;;;18.50;94.10;;;;;;4822560;29;20125;-86
2022/05/25 09:54:34;;;;;;;0.65;0.10;;;18.50;94.00;;;;;;4821719;29;20402;-87
2022/05/25 09:57:07;;;;;;;0.47;0.10;;;18.50;93.50;;;;;;4827276;29;20124;-87
2022/05/25 09:59:42;;;;;;;0.30;0.10;;;18.50;93.90;;;;;;4823412;29;20503;-87
2022/05/25 10:02:41;;;;;;;0.25;0.10;;;18.70;94.80;;;;;;4822269;29;20045;-87
2022/05/25 10:05:11;;;;;;;0.10;0.00;;;18.80;92.70;;;;;;4822445;29;20019;-88
2022/05/25 10:07:39;;;;;;;0.47;0.10;;;18.80;92.70;;;;;;4821982;29;20065;-87
2022/05/25 10:10:08;;;;;;;0.10;0.10;;;18.60;92.90;;;;;;4823533;29;20399;-86
2022/05/25 10:12:44;;;;;;;0.45;0.10;;;18.60;92.80;;;;;;4834193;29;20216;-87
2022/05/25 10:15:13;;;;;;;0.50;0.10;;;18.50;93.70;;;;;;4829713;29;20572;-87
2022/05/25 10:17:46;;;;;;;0.38;0.10;;;18.40;93.80;;;;;;4839645;29;20720;-87
2022/05/25 10:20:45;;;;;;;0.13;0.03;;;18.50;93.80;;;;;;4840273;29;20026;-87
2022/05/25 10:23:24;;;;;;;0.40;0.20;;;19.10;94.90;;;;;;4838037;29;20018;-86
2022/05/25 10:26:03;;;;;;;0.40;0.10;;;19.80;93.10;;;;;;4838101;29;20030;-88
2022/05/25 10:28:44;;;;;;;0.40;0.03;;;20.10;92.80;;;;;;4839457;29;20045;-88
2022/05/25 10:37:07;;;;;;;0.43;0.10;;;20.20;91.40;;;;;;4841361;29;20037;-87
2022/05/25 10:39:39;;;;;;;0.43;0.10;;;20.30;90.60;;;;;;4843112;29;20021;-88
2022/05/25 10:42:26;;;;;;;0.17;0.10;;;20.90;90.90;;;;;;4840228;29;20570;-88
2022/05/25 10:45:11;;;;;;;0.55;0.10;;;21.60;90.60;;;;;;4839877;29;20468;-88
2022/05/25 10:47:51;;;;;;;0.00;0.00;;;22.20;90.30;;;;;;4835467;29;20060;-88
2022/05/25 10:50:25;;;;;;;0.15;0.05;;;22.20;89.20;;;;;;4822462;29;20038;-88
2022/05/25 10:53:10;;;;;;;1.52;0.30;;;22.20;86.70;;;;;;4837833;29;20129;-87
2022/05/25 10:55:45;;;;;;;0.20;0.10;;;22.50;84.60;;;;;;4838871;29;20049;-87
2022/05/25 10:59:03;;;;;;;0.10;0.10;;;22.70;84.10;;;;;;4838276;29;20444;-87
2022/05/25 11:01:56;;;;;;;0.52;0.20;;;22.80;83.60;;;;;;4817338;29;20085;-88
2022/05/25 11:04:45;;;;;;;0.20;0.10;;;21.80;85.20;;;;;;4834809;29;20519;-87
2022/05/25 11:07:31;;;;;;;0.47;0.15;;;21.60;84.60;;;;;;4838309;29;20102;-88
2022/05/25 11:10:24;;;;;;;0.28;0.10;;;21.10;85.20;;;;;;4839179;29;20070;-88
2022/05/25 11:13:14;;;;;;;0.82;0.10;;;20.90;88.60;;;;;;4826765;29;20100;-88
2022/05/25 11:15:55;;;;;;;0.08;0.05;;;20.90;85.50;;;;;;4839286;29;20026;-87
2022/05/25 11:18:33;;;;;;;0.85;0.30;;;20.70;88.90;;;;;;4839049;29;20077;-87
2022/05/25 11:21:02;;;;;;;0.82;0.20;;;20.50;87.50;;;;;;4826208;29;20030;-87
2022/05/25 11:24:04;;;;;;;0.95;0.10;;;20.50;87.20;;;;;;4821605;29;20121;-88
2022/05/25 11:26:53;;;;;;;1.60;0.10;;;20.90;86.00;;;;;;4837322;29;20431;-88
2022/05/25 11:29:34;;;;;;;1.02;0.10;;;21.20;86.20;;;;;;4834806;29;20042;-87
2022/05/25 11:32:18;;;;;;;0.20;0.10;;;21.20;86.50;;;;;;4824850;29;20097;-88
2022/05/25 11:34:52;;;;;;;0.47;0.20;;;21.20;87.20;;;;;;4839133;29;20483;-88
2022/05/25 11:37:23;;;;;;;0.28;0.10;;;21.20;89.00;;;;;;4839477;29;20383;-87
2022/05/25 11:40:12;;;;;;;0.50;0.10;;;20.70;89.40;;;;;;4840880;29;20022;-88
2022/05/25 11:42:52;;;;;;;0.10;0.03;;;20.60;90.50;;;;;;4830726;29;20170;-88
2022/05/25 11:45:37;;;;;;;0.57;0.10;;;20.40;89.50;;;;;;4839755;29;20074;-88
2022/05/25 11:48:23;;;;;;;0.60;0.10;;;20.30;90.20;;;;;;4822639;29;20023;-88
2022/05/25 11:51:09;;;;;;;0.82;0.15;;;20.50;89.30;;;;;;4830626;29;20026;-87
2022/05/25 11:53:55;;;;;;;0.00;0.00;;;20.90;87.20;;;;;;4838459;29;20534;-87
2022/05/25 11:56:20;;;;;;;1.05;0.30;;;20.90;86.20;;;;;;4832075;29;20034;-88
2022/05/25 11:58:59;;;;;;;0.13;0.08;;;21.10;87.60;;;;;;4833519;29;20030;-88
2022/05/25 12:01:34;;;;;;;0.40;0.10;;;21.00;87.90;;;;;;4837259;29;20034;-88
2022/05/25 12:04:19;;;;;;;0.93;0.13;;;21.70;89.00;;;;;;4823213;29;20532;-87
2022/05/25 12:07:07;;;;;;;0.50;0.30;;;22.00;83.40;;;;;;4831262;29;20105;-87
2022/05/25 12:10:06;;;;;;;0.20;0.10;;;22.60;83.60;;;;;;4821706;29;20555;-88
2022/05/25 12:13:00;;;;;;;3.15;0.22;;;23.10;82.00;;;;;;4822080;29;20034;-88
2022/05/25 12:15:54;;;;;;;1.17;0.45;;;24.10;81.40;;;;;;4832352;29;20037;-88
2022/05/25 12:18:45;;;;;;;0.05;0.00;;;24.50;80.50;;;;;;4839762;29;20098;-89
2022/05/25 12:21:16;;;;;;;;;;;24.50;79.40;;;;;;4831215;29;20526;-88
2022/05/25 12:24:01;;;;;;;2.38;0.35;;;24.80;80.70;;;;;;4846889;29;20007;-87
2022/05/25 12:26:31;;;;;;;0.80;0.38;;;25.30;76.30;;;;;;4847791;29;20121;-88
2022/05/25 12:29:15;;;;;;;0.20;0.17;;;25.40;75.10;;;;;;4831886;29;20077;-88
2022/05/25 12:31:44;;;;;;;0.88;0.20;;;24.90;74.00;;;;;;4825855;29;20038;-88
2022/05/25 12:34:23;;;;;;;0.20;0.10;;;24.20;74.60;;;;;;4841065;29;20077;-87
2022/05/25 12:36:51;;;;;;;0.80;0.20;;;23.70;75.20;;;;;;4837446;29;20051;-88
2022/05/25 12:39:42;;;;;;;3.95;0.20;;;23.20;76.80;;;;;;4823216;29;20037;-87
2022/05/25 12:42:33;;;;;;;0.20;0.10;;;22.60;78.10;;;;;;4820817;29;20040;-88
2022/05/25 12:51:06;;;;;;;0.32;0.20;;;22.50;77.00;;;;;;4824772;29;20045;-88
2022/05/25 12:53:49;;;;;;;0.70;0.10;;;23.10;78.00;;;;;;4831953;29;20059;-88
2022/05/25 12:56:23;;;;;;;1.48;0.10;;;23.80;75.30;;;;;;4836518;29;20022;-89
2022/05/25 12:58:51;;;;;;;1.52;0.08;;;24.30;75.40;;;;;;4843170;29;20030;-89
2022/05/25 13:02:03;;;;;;;1.13;0.10;;;24.50;74.30;;;;;;4841973;29;20065;-89
2022/05/25 13:05:04;;;;;;;0.60;0.13;;;24.90;73.60;;;;;;4823032;29;20030;-88
2022/05/25 13:07:52;;;;;;;0.37;0.10;;;25.50;72.30;;;;;;4842516;29;20050;-90
2022/05/25 13:10:36;;;;;;;0.35;0.10;;;26.00;68.60;;;;;;4840226;29;20507;-89
2022/05/25 13:13:36;;;;;;;0.40;0.10;;;25.80;70.00;;;;;;4845705;29;20025;-88
2022/05/25 13:16:46;;;;;;;0.55;0.10;;;26.10;70.70;;;;;;4824921;29;20038;-89
2022/05/25 13:19:25;;;;;;;0.28;0.10;;;26.30;69.00;;;;;;4823097;29;20034;-89
2022/05/25 13:25:53;;;;;;;0.65;0.10;;;25.60;68.30;;;;;;4827240;29;20437;-89
2022/05/25 13:28:57;;;;;;;0.30;0.10;;;24.80;71.50;;;;;;4834364;29;20056;-89
2022/05/25 13:31:40;;;;;;;0.10;0.10;;;24.10;70.10;;;;;;4831793;29;20038;-87
2022/05/25 13:34:37;;;;;;;0.38;0.10;;;24.00;70.50;;;;;;4823020;29;20045;-89
2022/05/25 13:37:55;;;;;;;0.82;0.20;;;24.10;72.10;;;;;;4823429;29;20092;-89
2022/05/25 13:40:45;;;;;;;0.88;0.10;;;24.50;71.80;;;;;;4837336;29;20130;-90
2022/05/25 13:43:18;;;;;;;0.13;0.03;;;24.10;69.80;;;;;;4825185;29;20052;-90
2022/05/25 13:46:38;;;;;;;;;;;;;;;;;;;;;
2022/05/25 13:50:03;;;;;;;;;;;;;;;;;;;;;
2022/05/25 13:52:35;;;;;;;0.25;0.10;;;24.40;74.30;;;;;;4871001;29;20548;-89
2022/05/25 13:55:36;;;;;;;0.40;0.10;;;24.80;73.10;;;;;;4842813;24;20515;-88
2022/05/25 13:58:29;;;;;;;1.50;0.30;;;24.70;70.40;;;;;;4837295;29;20491;-89
2022/05/25 14:01:06;;;;;;;0.47;0.20;;;24.40;69.70;;;;;;4831426;29;20030;-89
2022/05/25 14:03:34;;;;;;;0.40;0.10;;;25.40;69.10;;;;;;4825831;29;20169;-90
2022/05/25 14:06:57;;;;;;;0.82;0.10;;;25.30;69.10;;;;;;4827504;29;20037;-90
2022/05/25 14:13:16;;;;;;;0.55;0.20;;;24.50;70.00;;;;;;4809061;29;20049;-89
2022/05/25 14:16:45;;;;;;;;;;;;;;;;;;;;;